Terminal Aerodrome Forecast
Issued by NWS Buffalo, NY

Home | Current Version | Previous Version | Text Only | Print | Product List | Glossary On
Versions: 1 2 3 4 5 6 7 8 9 10 11 12 13 14 15 16 17 18 19 20 21 22 23 24 25
000
FTUS41 KBUF 252000 AAA
TAFROC
TAF AMD
KROC 252039Z 2521/2618 27019G29KT P6SM SCT025 BKN035
     FM260000 26013G20KT P6SM BKN025
     FM260400 25012G18KT P6SM OVC020
     FM260700 25012KT P6SM BKN020
     FM261700 23011KT P6SM BKN035=

USA.gov is the U.S. government's official web portal to all federal, state and local government web resources and services.